createdAt,value
2017-08-20T00:01:13.362Z,4.50
2017-08-20T00:03:40.971Z,4.70
2017-08-20T00:06:08.558Z,4.10
2017-08-20T00:08:36.479Z,3.40
2017-08-20T00:11:04.064Z,3.90
2017-08-20T00:13:31.638Z,3.50
2017-08-20T00:15:59.958Z,3.17
2017-08-20T00:18:27.526Z,4.20
2017-08-20T00:20:55.177Z,4.20
2017-08-20T00:23:22.745Z,5.43
2017-08-20T00:25:50.611Z,6.20
2017-08-20T00:28:18.182Z,6.50
2017-08-20T00:30:45.766Z,5.43
2017-08-20T00:33:13.376Z,6.60
2017-08-20T00:35:40.958Z,6.00
2017-08-20T00:38:08.545Z,5.30
2017-08-20T00:40:36.886Z,6.40
2017-08-20T00:43:04.719Z,5.87
2017-08-20T00:45:32.314Z,5.60
2017-08-20T00:47:59.952Z,5.20
2017-08-20T00:50:27.535Z,5.80
2017-08-20T00:52:55.171Z,6.27
2017-08-20T00:55:22.875Z,5.50
2017-08-20T00:57:50.455Z,5.93
2017-08-20T01:00:18.441Z,5.13
2017-08-20T01:02:46.014Z,5.60
2017-08-20T01:05:13.653Z,5.60
2017-08-20T01:07:42.009Z,7.10
2017-08-20T01:10:09.566Z,5.90
2017-08-20T01:12:37.166Z,5.70
2017-08-20T01:15:04.728Z,4.93
2017-08-20T01:17:32.629Z,3.93
2017-08-20T01:20:00.184Z,2.67
2017-08-20T01:22:27.769Z,3.33
2017-08-20T01:24:55.366Z,3.40
2017-08-20T01:27:22.949Z,3.03
2017-08-20T01:29:50.530Z,3.10
2017-08-20T01:32:18.118Z,3.13
2017-08-20T01:34:46.769Z,3.73
2017-08-20T01:37:14.567Z,2.60
2017-08-20T01:39:42.164Z,2.80
2017-08-20T01:42:09.746Z,3.10
2017-08-20T01:44:37.305Z,3.57
2017-08-20T01:47:04.926Z,3.20
2017-08-20T01:49:33.325Z,3.00
2017-08-20T01:52:01.228Z,3.67
2017-08-20T01:54:28.789Z,3.20
2017-08-20T01:56:56.350Z,2.77
2017-08-20T01:59:23.965Z,2.77
2017-08-20T02:01:51.550Z,3.00
2017-08-20T02:04:19.159Z,2.87
2017-08-20T02:06:47.499Z,3.20
2017-08-20T02:09:15.362Z,3.10
2017-08-20T02:11:43.006Z,3.60
2017-08-20T02:14:10.578Z,3.20
2017-08-20T02:16:38.175Z,3.23
2017-08-20T02:19:05.747Z,2.87
2017-08-20T02:21:34.121Z,3.20
2017-08-20T02:24:02.454Z,3.17
2017-08-20T02:26:30.333Z,3.10
2017-08-20T02:28:57.960Z,3.40
2017-08-20T02:31:25.533Z,3.03
2017-08-20T02:33:53.111Z,3.37
2017-08-20T02:36:20.681Z,4.20
2017-08-20T02:38:48.551Z,3.37
2017-08-20T02:41:16.222Z,3.13
2017-08-20T02:43:43.818Z,3.60
2017-08-20T02:46:11.397Z,2.83
2017-08-20T02:48:38.979Z,3.03
2017-08-20T02:51:06.598Z,3.17
2017-08-20T02:53:34.162Z,3.10
2017-08-20T02:56:01.992Z,3.80
2017-08-20T02:58:30.319Z,3.57
2017-08-20T03:00:57.929Z,3.47
2017-08-20T03:03:26.336Z,3.40
2017-08-20T03:05:53.946Z,3.53
2017-08-20T03:08:21.559Z,4.50
2017-08-20T03:10:49.161Z,4.10
2017-08-20T03:13:17.118Z,3.30
2017-08-20T03:15:44.678Z,4.50
2017-08-20T03:18:12.269Z,3.40
2017-08-20T03:20:39.849Z,3.50
2017-08-20T03:23:07.673Z,3.10
2017-08-20T03:25:35.297Z,3.47
2017-08-20T03:28:02.860Z,2.90
2017-08-20T03:30:30.738Z,2.47
2017-08-20T03:32:58.334Z,3.23
2017-08-20T03:35:25.894Z,3.83
2017-08-20T03:37:53.493Z,3.57
2017-08-20T03:40:21.065Z,3.77
2017-08-20T03:42:48.729Z,3.80
2017-08-20T03:45:16.298Z,2.90
2017-08-20T03:47:44.168Z,4.07
2017-08-20T03:50:11.726Z,4.30
2017-08-20T03:52:39.326Z,4.30
2017-08-20T03:55:07.744Z,3.70
2017-08-20T03:57:35.314Z,4.10
2017-08-20T04:00:02.882Z,3.50
2017-08-20T04:02:30.438Z,3.40
2017-08-20T04:04:58.393Z,4.70
2017-08-20T04:07:25.961Z,4.03
2017-08-20T04:09:53.519Z,4.13
2017-08-20T04:12:21.189Z,4.77
2017-08-20T04:14:48.750Z,4.27
2017-08-20T04:17:16.344Z,5.90
2017-08-20T04:19:43.917Z,5.60
2017-08-20T04:22:12.553Z,5.90
2017-08-20T04:24:40.153Z,3.70
2017-08-20T04:27:08.513Z,3.53
2017-08-20T04:29:36.873Z,4.00
2017-08-20T04:32:04.448Z,3.80
2017-08-20T04:34:32.025Z,3.03
2017-08-20T04:37:00.382Z,3.20
2017-08-20T04:39:27.942Z,3.50
2017-08-20T04:41:55.897Z,3.37
2017-08-20T04:44:23.462Z,3.70
2017-08-20T04:46:51.013Z,3.10
2017-08-20T04:49:18.582Z,4.00
2017-08-20T04:51:46.141Z,4.50
2017-08-20T04:54:13.989Z,4.60
2017-08-20T04:56:41.626Z,4.53
2017-08-20T04:59:09.179Z,3.43
2017-08-20T05:01:36.761Z,3.17
2017-08-20T05:04:04.322Z,2.77
2017-08-20T05:06:31.950Z,2.60
2017-08-20T05:08:59.526Z,3.50
2017-08-20T05:11:27.360Z,3.10
2017-08-20T05:13:55.683Z,2.47
2017-08-20T05:16:23.241Z,2.40
2017-08-20T05:18:50.828Z,2.47
2017-08-20T05:21:18.402Z,2.53
2017-08-20T05:23:45.977Z,2.43
2017-08-20T05:26:14.393Z,2.27
2017-08-20T05:28:42.234Z,2.47
2017-08-20T05:31:09.812Z,3.00
2017-08-20T05:33:37.371Z,2.67
2017-08-20T05:36:05.006Z,2.67
2017-08-20T05:38:33.342Z,2.53
2017-08-20T05:41:01.205Z,2.33
2017-08-20T05:43:28.793Z,2.63
2017-08-20T05:45:56.353Z,2.20
2017-08-20T05:48:24.062Z,2.10
2017-08-20T05:50:51.624Z,2.63
2017-08-20T05:53:19.501Z,2.07
2017-08-20T05:55:47.067Z,2.20
2017-08-20T05:58:14.654Z,2.30
2017-08-20T06:00:42.230Z,2.40
2017-08-20T06:03:09.790Z,2.60
2017-08-20T06:05:38.427Z,1.90
2017-08-20T06:08:06.049Z,2.00
2017-08-20T06:10:33.607Z,1.80
2017-08-20T06:13:01.230Z,2.33
2017-08-20T06:15:28.794Z,2.87
2017-08-20T06:17:56.382Z,1.93
2017-08-20T06:20:23.995Z,2.50
2017-08-20T06:22:51.856Z,2.47
2017-08-20T06:25:19.426Z,2.20
2017-08-20T06:27:47.014Z,2.60
2017-08-20T06:30:15.769Z,1.70
2017-08-20T06:32:43.347Z,2.73
2017-08-20T06:35:11.037Z,2.50
2017-08-20T06:37:38.615Z,1.97
2017-08-20T06:40:06.266Z,2.43
2017-08-20T06:42:33.853Z,2.40
2017-08-20T06:45:01.440Z,2.87
2017-08-20T06:47:29.385Z,2.17
2017-08-20T06:49:56.973Z,2.30
2017-08-20T06:52:24.542Z,2.53
2017-08-20T06:54:52.125Z,1.93
2017-08-20T06:57:19.694Z,2.40
2017-08-20T06:59:47.378Z,2.30
2017-08-20T07:02:14.946Z,2.60
2017-08-20T07:04:42.811Z,2.13
2017-08-20T07:07:10.405Z,2.63
2017-08-20T07:09:37.986Z,2.70
2017-08-20T07:12:05.573Z,2.60
2017-08-20T07:14:33.138Z,2.43
2017-08-20T07:17:00.744Z,2.57
2017-08-20T07:19:29.118Z,2.80
2017-08-20T07:21:57.054Z,2.47
2017-08-20T07:24:24.620Z,2.90
2017-08-20T07:26:52.183Z,2.27
2017-08-20T07:29:19.833Z,2.93
2017-08-20T07:31:47.407Z,3.20
2017-08-20T07:34:15.007Z,2.80
2017-08-20T07:36:42.667Z,3.50
2017-08-20T07:39:10.586Z,2.90
2017-08-20T07:41:38.182Z,3.17
2017-08-20T07:44:06.520Z,3.20
2017-08-20T07:46:34.108Z,2.60
2017-08-20T07:49:01.712Z,2.90
2017-08-20T07:51:29.313Z,3.47
2017-08-20T07:53:56.886Z,2.90
2017-08-20T07:56:24.870Z,2.73
2017-08-20T07:58:52.449Z,3.10
2017-08-20T08:01:20.035Z,2.87
2017-08-20T08:03:48.458Z,3.10
2017-08-20T08:06:16.022Z,2.70
2017-08-20T08:08:43.618Z,2.60
2017-08-20T08:11:11.250Z,2.43
2017-08-20T08:13:39.281Z,2.77
2017-08-20T08:16:06.863Z,3.17
2017-08-20T08:18:34.463Z,2.40
2017-08-20T08:21:02.202Z,2.90
2017-08-20T08:23:29.766Z,2.77
2017-08-20T08:25:58.129Z,3.57
2017-08-20T08:28:25.745Z,3.00
2017-08-20T08:30:53.598Z,2.83
2017-08-20T08:33:21.171Z,2.27
2017-08-20T08:35:48.746Z,2.23
2017-08-20T08:38:16.384Z,2.63
2017-08-20T08:40:44.002Z,3.03
2017-08-20T08:43:12.660Z,2.70
2017-08-20T08:45:40.249Z,2.67
2017-08-20T08:48:08.634Z,2.07
2017-08-20T08:50:37.003Z,2.67
2017-08-20T08:53:05.387Z,3.00
2017-08-20T08:55:34.042Z,2.30
2017-08-20T08:58:01.622Z,2.20
2017-08-20T09:00:29.189Z,3.00
2017-08-20T09:02:56.834Z,2.13
2017-08-20T09:05:24.513Z,2.33
2017-08-20T09:07:52.874Z,2.40
2017-08-20T09:10:20.448Z,2.23
2017-08-20T09:12:49.095Z,2.00
2017-08-20T09:15:16.665Z,2.53
2017-08-20T09:17:44.257Z,2.60
2017-08-20T09:20:11.899Z,2.23
2017-08-20T09:22:39.457Z,2.83
2017-08-20T09:25:07.090Z,2.27
2017-08-20T09:27:34.646Z,2.10
2017-08-20T09:30:02.515Z,2.10
2017-08-20T09:32:30.141Z,2.70
2017-08-20T09:34:57.734Z,2.50
2017-08-20T09:37:25.338Z,2.03
2017-08-20T09:39:53.660Z,2.73
2017-08-20T09:42:21.265Z,2.30
2017-08-20T09:44:48.976Z,2.20
2017-08-20T09:47:16.880Z,2.43
2017-08-20T09:49:44.503Z,2.37
2017-08-20T09:52:12.076Z,2.27
2017-08-20T09:54:39.737Z,2.43
2017-08-20T09:57:07.388Z,1.83
2017-08-20T09:59:35.013Z,1.80
2017-08-20T10:02:03.398Z,3.00
2017-08-20T10:04:31.257Z,2.23
2017-08-20T10:06:58.848Z,1.90
2017-08-20T10:09:26.409Z,2.07
2017-08-20T10:11:54.892Z,1.93
2017-08-20T10:14:22.495Z,2.60
2017-08-20T10:16:50.416Z,2.37
2017-08-20T10:19:17.999Z,1.90
2017-08-20T10:21:45.867Z,2.07
2017-08-20T10:24:13.463Z,2.20
2017-08-20T10:26:41.031Z,1.90
2017-08-20T10:29:09.425Z,2.20
2017-08-20T10:31:37.017Z,2.40
2017-08-20T10:34:04.660Z,2.90
2017-08-20T10:36:32.259Z,1.80
2017-08-20T10:39:00.120Z,1.70
2017-08-20T10:41:27.741Z,1.63
2017-08-20T10:43:55.903Z,1.67
2017-08-20T10:46:23.677Z,2.20
2017-08-20T10:48:51.263Z,2.30
2017-08-20T10:51:18.859Z,1.83
2017-08-20T10:53:47.371Z,1.80
2017-08-20T10:56:15.303Z,1.93
2017-08-20T10:58:45.225Z,2.23
2017-08-20T11:01:12.831Z,1.70
2017-08-20T11:03:40.438Z,2.53
2017-08-20T11:06:07.996Z,1.80
2017-08-20T11:08:35.608Z,2.03
2017-08-20T11:11:03.200Z,1.77
2017-08-20T11:13:31.142Z,1.90
2017-08-20T11:15:58.724Z,1.60
2017-08-20T11:18:26.316Z,1.60
2017-08-20T11:20:54.853Z,1.50
2017-08-20T11:23:22.676Z,1.90
2017-08-20T11:25:50.299Z,1.70
2017-08-20T11:28:17.890Z,2.33
2017-08-20T11:30:45.921Z,1.80
2017-08-20T11:33:13.607Z,1.60
2017-08-20T11:35:41.201Z,1.70
2017-08-20T11:38:08.809Z,1.73
2017-08-20T11:40:36.438Z,1.90
2017-08-20T11:43:04.094Z,1.67
2017-08-20T11:45:31.669Z,1.73
2017-08-20T11:47:59.542Z,1.50
2017-08-20T11:50:27.258Z,1.97
2017-08-20T11:52:54.921Z,1.90
2017-08-20T11:55:22.526Z,2.07
2017-08-20T11:57:50.103Z,1.80
2017-08-20T12:00:17.723Z,1.77
2017-08-20T12:02:45.304Z,2.17
2017-08-20T12:05:13.177Z,2.30
2017-08-20T12:07:40.743Z,2.20
2017-08-20T12:10:08.426Z,3.00
2017-08-20T12:12:36.800Z,1.90
2017-08-20T12:15:04.364Z,1.43
2017-08-20T12:17:32.793Z,1.70
2017-08-20T12:20:00.359Z,1.33
2017-08-20T12:22:28.256Z,1.43
2017-08-20T12:24:55.847Z,1.80
2017-08-20T12:27:23.429Z,2.70
2017-08-20T12:29:51.027Z,1.60
2017-08-20T12:32:18.648Z,1.70
2017-08-20T12:34:46.271Z,2.27
2017-08-20T12:37:14.602Z,2.07
2017-08-20T12:39:42.450Z,1.50
2017-08-20T12:42:10.039Z,1.77
2017-08-20T12:44:37.630Z,1.40
2017-08-20T12:47:05.227Z,1.53
2017-08-20T12:49:32.811Z,1.83
2017-08-20T12:52:00.457Z,2.10
2017-08-20T12:54:28.118Z,1.60
2017-08-20T12:56:55.972Z,1.80
2017-08-20T12:59:23.558Z,1.90
2017-08-20T13:01:52.080Z,1.97
2017-08-20T13:04:20.483Z,1.90
2017-08-20T13:06:48.072Z,2.27
2017-08-20T13:09:15.693Z,2.00
2017-08-20T13:11:44.044Z,1.90
2017-08-20T13:14:12.591Z,1.80
2017-08-20T13:16:40.198Z,1.40
2017-08-20T13:19:07.748Z,2.07
2017-08-20T13:21:35.364Z,1.20
2017-08-20T13:24:02.983Z,1.97
2017-08-20T13:26:30.615Z,2.10
2017-08-20T13:28:58.216Z,1.77
2017-08-20T13:31:26.879Z,1.60
2017-08-20T13:33:54.461Z,2.23
2017-08-20T13:36:22.150Z,1.90
2017-08-20T13:38:49.760Z,1.67
2017-08-20T13:41:17.360Z,2.00
2017-08-20T13:43:44.980Z,1.70
2017-08-20T13:46:12.594Z,1.63
2017-08-20T13:48:40.464Z,2.53
2017-08-20T13:51:08.055Z,1.80
2017-08-20T13:53:35.633Z,2.00
2017-08-20T13:56:04.431Z,1.80
2017-08-20T13:58:32.774Z,2.23
2017-08-20T14:01:00.389Z,1.90
2017-08-20T14:03:28.215Z,1.70
2017-08-20T14:05:55.881Z,2.00
2017-08-20T14:08:23.538Z,2.13
2017-08-20T14:10:51.167Z,1.63
2017-08-20T14:13:18.803Z,2.10
2017-08-20T14:15:46.381Z,1.80
2017-08-20T14:18:13.976Z,1.70
2017-08-20T14:20:41.900Z,2.23
2017-08-20T14:23:09.466Z,2.03
2017-08-20T14:25:37.323Z,1.93
2017-08-20T14:28:04.917Z,1.83
2017-08-20T14:30:32.620Z,2.50
2017-08-20T14:33:00.995Z,1.80
2017-08-20T14:35:28.674Z,1.83
2017-08-20T14:37:56.551Z,1.73
2017-08-20T14:40:24.146Z,1.77
2017-08-20T14:42:51.807Z,1.60
2017-08-20T14:45:19.412Z,1.40
2017-08-20T14:47:46.980Z,1.73
2017-08-20T14:50:14.888Z,1.93
2017-08-20T14:52:42.589Z,1.63
2017-08-20T14:55:10.961Z,2.10
2017-08-20T14:57:38.564Z,1.63
2017-08-20T15:00:06.181Z,1.80
2017-08-20T15:02:34.935Z,1.90
2017-08-20T15:05:02.553Z,2.07
2017-08-20T15:07:30.151Z,2.57
2017-08-20T15:09:57.937Z,1.90
2017-08-20T15:12:25.702Z,1.43
2017-08-20T15:14:53.307Z,1.63
2017-08-20T15:17:20.924Z,1.97
2017-08-20T15:19:48.785Z,1.70
2017-08-20T15:22:16.381Z,1.93
2017-08-20T15:24:44.135Z,2.10
2017-08-20T15:27:11.759Z,2.10
2017-08-20T15:29:39.461Z,1.80
2017-08-20T15:32:07.838Z,1.80
2017-08-20T15:34:36.238Z,2.73
2017-08-20T15:37:04.121Z,8.37
2017-08-20T15:39:32.018Z,5.63
2017-08-20T15:41:59.623Z,2.43
2017-08-20T15:44:27.217Z,2.00
2017-08-20T15:46:54.865Z,2.03
2017-08-20T15:49:22.481Z,2.50
2017-08-20T15:51:58.875Z,2.27
2017-08-20T15:54:26.744Z,2.00
2017-08-20T15:56:54.299Z,1.70
2017-08-20T15:59:21.928Z,1.80
2017-08-20T16:01:50.316Z,1.80
2017-08-20T16:04:18.701Z,1.50
2017-08-20T16:06:46.315Z,1.80
2017-08-20T16:09:13.944Z,1.40
2017-08-20T16:11:44.109Z,1.27
2017-08-20T16:14:11.747Z,1.57
2017-08-20T16:16:39.476Z,2.33
2017-08-20T16:19:07.070Z,1.70
2017-08-20T16:21:34.648Z,2.47
2017-08-20T16:24:02.368Z,1.40
2017-08-20T16:26:30.041Z,2.37
2017-08-20T16:28:58.057Z,1.70
2017-08-20T16:31:25.612Z,2.00
2017-08-20T16:33:53.227Z,1.70
2017-08-20T16:36:20.815Z,1.43
2017-08-20T16:38:48.417Z,1.80
2017-08-20T16:41:16.338Z,1.77
2017-08-20T16:43:43.945Z,2.20
2017-08-20T16:46:12.280Z,1.60
2017-08-20T16:48:39.936Z,1.40
2017-08-20T16:51:07.516Z,2.67
2017-08-20T16:53:35.879Z,2.33
2017-08-20T16:56:03.458Z,1.60
2017-08-20T16:58:31.418Z,1.93
2017-08-20T17:00:59.013Z,2.23
2017-08-20T17:03:26.638Z,2.20
2017-08-20T17:05:54.241Z,2.00
2017-08-20T17:08:21.793Z,2.07
2017-08-20T17:10:49.401Z,1.73
2017-08-20T17:13:17.003Z,2.00
2017-08-20T17:15:44.895Z,1.90
2017-08-20T17:18:13.423Z,1.90
2017-08-20T17:20:41.028Z,2.10
2017-08-20T17:23:08.640Z,2.03
2017-08-20T17:25:36.270Z,2.70
2017-08-20T17:28:03.887Z,3.60
2017-08-20T17:30:31.520Z,3.00
2017-08-20T17:32:59.455Z,3.07
2017-08-20T17:35:27.072Z,1.53
2017-08-20T17:37:54.651Z,2.37
2017-08-20T17:40:22.374Z,1.90
2017-08-20T17:42:49.982Z,2.00
2017-08-20T17:45:17.607Z,2.13
2017-08-20T17:47:45.196Z,1.77
2017-08-20T17:50:13.238Z,2.17
2017-08-20T17:52:40.847Z,2.30
2017-08-20T17:55:08.418Z,2.20
2017-08-20T17:57:36.031Z,2.13
2017-08-20T18:00:04.398Z,1.60
2017-08-20T18:02:32.751Z,2.27
2017-08-20T18:05:00.339Z,1.97
2017-08-20T18:07:28.380Z,2.47
2017-08-20T18:09:56.004Z,2.53
2017-08-20T18:12:23.684Z,2.53
2017-08-20T18:14:51.298Z,1.97
2017-08-20T18:17:19.640Z,1.50
2017-08-20T18:19:47.835Z,1.87
2017-08-20T18:22:15.432Z,2.27
2017-08-20T18:24:43.059Z,1.50
2017-08-20T18:27:10.677Z,1.60
2017-08-20T18:29:38.280Z,2.30
2017-08-20T18:32:06.183Z,1.77
2017-08-20T18:34:33.840Z,2.53
2017-08-20T18:37:01.446Z,2.73
2017-08-20T18:39:29.066Z,2.47
2017-08-20T18:41:56.661Z,2.30
2017-08-20T18:44:24.525Z,2.30
2017-08-20T18:46:53.458Z,2.50
2017-08-20T18:49:21.075Z,1.60
2017-08-20T18:51:48.697Z,1.97
2017-08-20T18:54:16.258Z,2.10
2017-08-20T18:56:44.270Z,2.10
2017-08-20T18:59:11.840Z,1.53
2017-08-20T19:01:39.497Z,2.00
2017-08-20T19:04:07.115Z,2.00
2017-08-20T19:06:34.833Z,1.93
2017-08-20T19:09:02.781Z,2.30
2017-08-20T19:11:30.371Z,1.73
2017-08-20T19:13:58.727Z,1.87
2017-08-20T19:16:26.405Z,1.80
2017-08-20T19:18:54.012Z,2.93
2017-08-20T19:21:21.922Z,2.33
2017-08-20T19:23:49.524Z,2.63
2017-08-20T19:26:17.340Z,2.00
2017-08-20T19:28:44.960Z,2.10
2017-08-20T19:31:12.598Z,1.97
2017-08-20T19:33:41.256Z,2.23
2017-08-20T19:36:08.855Z,2.80
2017-08-20T19:38:36.420Z,1.87
2017-08-20T19:43:29.557Z,1.90
2017-08-20T19:45:57.485Z,2.20
2017-08-20T19:48:25.147Z,2.40
2017-08-20T19:50:52.736Z,2.30
2017-08-20T19:53:20.366Z,2.63
2017-08-20T19:55:47.990Z,2.60
2017-08-20T19:58:15.961Z,2.87
2017-08-20T20:00:43.631Z,2.40
2017-08-20T20:03:11.376Z,2.93
2017-08-20T20:05:39.771Z,2.40
2017-08-20T20:08:07.407Z,2.80
2017-08-20T20:10:35.327Z,2.37
2017-08-20T20:13:02.927Z,2.10
2017-08-20T20:15:31.307Z,2.10
2017-08-20T20:17:59.731Z,2.30
2017-08-20T20:20:27.331Z,2.27
2017-08-20T20:22:54.956Z,2.83
2017-08-20T20:25:22.757Z,2.77
2017-08-20T20:27:50.850Z,2.60
2017-08-20T20:30:19.237Z,2.53
2017-08-20T20:32:47.648Z,2.60
2017-08-20T20:35:15.227Z,2.30
2017-08-20T20:37:42.837Z,2.43
2017-08-20T20:40:10.452Z,2.40
2017-08-20T20:42:38.048Z,2.80
2017-08-20T20:45:06.703Z,3.40
2017-08-20T20:47:34.310Z,2.87
2017-08-20T20:50:01.918Z,2.70
2017-08-20T20:52:29.541Z,2.77
2017-08-20T20:54:57.144Z,2.90
2017-08-20T20:57:25.120Z,2.33
2017-08-20T20:59:52.723Z,2.87
2017-08-20T21:02:20.313Z,2.63
2017-08-20T21:04:47.916Z,2.73
2017-08-20T21:07:16.283Z,2.47
2017-08-20T21:09:44.143Z,2.80
2017-08-20T21:12:11.784Z,2.57
2017-08-20T21:14:39.342Z,2.70
2017-08-20T21:17:06.944Z,2.20
2017-08-20T21:19:35.300Z,2.60
2017-08-20T21:22:02.919Z,2.93
2017-08-20T21:24:30.584Z,2.20
2017-08-20T21:26:58.170Z,3.10
2017-08-20T21:29:25.767Z,2.80
2017-08-20T21:31:53.373Z,2.90
2017-08-20T21:34:20.978Z,2.27
2017-08-20T21:36:48.568Z,2.80
2017-08-20T21:39:16.148Z,2.70
2017-08-20T21:41:43.801Z,2.87
2017-08-20T21:44:11.461Z,2.83
2017-08-20T21:46:39.048Z,2.90
2017-08-20T21:49:06.734Z,2.33
2017-08-20T21:51:34.287Z,2.20
2017-08-20T21:54:01.908Z,2.53
2017-08-20T21:56:29.514Z,2.87
2017-08-20T21:58:57.085Z,3.03
2017-08-20T22:01:25.442Z,3.23
2017-08-20T22:03:53.033Z,2.50
2017-08-20T22:06:20.641Z,2.80
2017-08-20T22:08:48.287Z,3.17
2017-08-20T22:11:16.053Z,3.27
2017-08-20T22:13:43.634Z,3.47
2017-08-20T22:16:11.217Z,3.00
2017-08-20T22:18:38.840Z,3.50
2017-08-20T22:21:06.487Z,2.90
2017-08-20T22:23:34.106Z,2.30
2017-08-20T22:26:02.443Z,2.30
2017-08-20T22:28:30.327Z,2.63
2017-08-20T22:30:57.904Z,2.70
2017-08-20T22:33:25.477Z,2.77
2017-08-20T22:35:53.093Z,2.50
2017-08-20T22:38:20.689Z,3.20
2017-08-20T22:40:49.080Z,2.60
2017-08-20T22:43:16.668Z,3.00
2017-08-20T22:45:44.266Z,2.43
2017-08-20T22:48:11.854Z,2.83
2017-08-20T22:50:39.734Z,2.57
2017-08-20T22:53:07.326Z,2.80
2017-08-20T22:55:34.905Z,2.50
2017-08-20T22:58:02.534Z,3.10
2017-08-20T23:00:30.115Z,2.80
2017-08-20T23:02:57.736Z,2.17
2017-08-20T23:05:25.323Z,2.67
2017-08-20T23:07:53.319Z,2.40
2017-08-20T23:10:21.056Z,3.17
2017-08-20T23:12:48.641Z,2.30
2017-08-20T23:15:16.305Z,3.20
2017-08-20T23:17:43.898Z,2.27
2017-08-20T23:20:12.272Z,2.60
2017-08-20T23:22:40.622Z,2.80
2017-08-20T23:25:08.469Z,2.70
2017-08-20T23:27:36.065Z,2.70
2017-08-20T23:30:04.424Z,2.40
2017-08-20T23:32:32.025Z,2.60
2017-08-20T23:34:59.605Z,3.00
2017-08-20T23:37:27.190Z,2.40
2017-08-20T23:39:54.772Z,3.40
2017-08-20T23:42:22.705Z,3.10
2017-08-20T23:44:50.324Z,2.73
2017-08-20T23:47:18.678Z,2.97
2017-08-20T23:49:46.286Z,2.70
2017-08-20T23:52:13.885Z,3.17
2017-08-20T23:54:41.785Z,3.03
2017-08-20T23:57:10.129Z,2.90
2017-08-20T23:59:37.725Z,2.80
